sensor_id;sensor_type;location;lat;lon;timestamp;pressure;altitude;pressure_sealevel;temperature;humidity
9091;BME280;4581;42.416;25.598;2023-05-11T00:00:47;67226.09;;;0.00;nan
9091;BME280;4581;42.416;25.598;2023-05-11T00:03:14;67235.25;;;0.00;nan
9091;BME280;4581;42.416;25.598;2023-05-11T00:05:41;67236.78;;;0.00;nan
9091;BME280;4581;42.416;25.598;2023-05-11T00:08:07;67230.69;;;0.00;nan
9091;BME280;4581;42.416;25.598;2023-05-11T00:10:34;67229.16;;;0.00;nan
9091;BME280;4581;42.416;25.598;2023-05-11T00:13:01;67224.56;;;0.00;nan
9091;BME280;4581;42.416;25.598;2023-05-11T00:15:28;67227.63;;;0.00;nan
9091;BME280;4581;42.416;25.598;2023-05-11T00:17:54;67233.72;;;0.00;nan
9091;BME280;4581;42.416;25.598;2023-05-11T00:20:21;67230.69;;;0.00;nan
9091;BME280;4581;42.416;25.598;2023-05-11T00:22:49;67227.63;;;0.00;nan
9091;BME280;4581;42.416;25.598;2023-05-11T00:25:15;67232.19;;;0.00;nan
9091;BME280;4581;42.416;25.598;2023-05-11T00:27:42;67238.31;;;0.00;nan
9091;BME280;4581;42.416;25.598;2023-05-11T00:30:12;67238.31;;;0.00;nan
9091;BME280;4581;42.416;25.598;2023-05-11T00:32:41;67250.50;;;0.00;nan
9091;BME280;4581;42.416;25.598;2023-05-11T00:35:09;67249.00;;;0.00;nan
9091;BME280;4581;42.416;25.598;2023-05-11T00:37:37;67249.00;;;0.00;nan
9091;BME280;4581;42.416;25.598;2023-05-11T00:40:05;67247.47;;;0.00;nan
9091;BME280;4581;42.416;25.598;2023-05-11T00:42:33;67250.50;;;0.00;nan
9091;BME280;4581;42.416;25.598;2023-05-11T00:44:59;67249.00;;;0.00;nan
9091;BME280;4581;42.416;25.598;2023-05-11T00:47:26;67252.03;;;0.00;nan
9091;BME280;4581;42.416;25.598;2023-05-11T00:49:53;67255.09;;;0.00;nan
9091;BME280;4581;42.416;25.598;2023-05-11T00:52:20;67261.19;;;0.00;nan
9091;BME280;4581;42.416;25.598;2023-05-11T00:54:47;67259.66;;;0.00;nan
9091;BME280;4581;42.416;25.598;2023-05-11T00:57:15;67267.28;;;0.00;nan
9091;BME280;4581;42.416;25.598;2023-05-11T00:59:42;67261.19;;;0.00;nan
9091;BME280;4581;42.416;25.598;2023-05-11T01:02:08;67267.28;;;0.00;nan
9091;BME280;4581;42.416;25.598;2023-05-11T01:04:35;67273.41;;;0.00;nan
9091;BME280;4581;42.416;25.598;2023-05-11T01:07:08;67270.34;;;0.00;nan
9091;BME280;4581;42.416;25.598;2023-05-11T01:12:25;67273.41;;;0.00;nan
9091;BME280;4581;42.416;25.598;2023-05-11T01:20:11;67271.88;;;0.00;nan
9091;BME280;4581;42.416;25.598;2023-05-11T01:28:46;67270.34;;;0.00;nan
9091;BME280;4581;42.416;25.598;2023-05-11T01:31:16;67271.88;;;0.00;nan
9091;BME280;4581;42.416;25.598;2023-05-11T01:34:04;67264.25;;;0.00;nan
9091;BME280;4581;42.416;25.598;2023-05-11T01:36:38;67271.88;;;0.00;nan
9091;BME280;4581;42.416;25.598;2023-05-11T01:39:09;67268.81;;;0.00;nan
9091;BME280;4581;42.416;25.598;2023-05-11T01:41:39;67265.78;;;0.00;nan
9091;BME280;4581;42.416;25.598;2023-05-11T01:44:09;67267.28;;;0.00;nan
9091;BME280;4581;42.416;25.598;2023-05-11T01:46:37;67279.50;;;0.00;nan
9091;BME280;4581;42.416;25.598;2023-05-11T01:49:06;67270.34;;;0.00;nan
9091;BME280;4581;42.416;25.598;2023-05-11T01:51:35;67271.88;;;0.00;nan
9091;BME280;4581;42.416;25.598;2023-05-11T01:54:07;67277.97;;;0.00;nan
9091;BME280;4581;42.416;25.598;2023-05-11T01:56:36;67276.44;;;0.00;nan
9091;BME280;4581;42.416;25.598;2023-05-11T01:59:03;67282.56;;;0.00;nan
9091;BME280;4581;42.416;25.598;2023-05-11T02:01:33;67291.72;;;0.00;nan
9091;BME280;4581;42.416;25.598;2023-05-11T02:04:03;67294.75;;;0.00;nan
9091;BME280;4581;42.416;25.598;2023-05-11T02:06:33;67297.81;;;0.00;nan
9091;BME280;4581;42.416;25.598;2023-05-11T02:09:01;67294.75;;;0.00;nan
9091;BME280;4581;42.416;25.598;2023-05-11T02:11:29;67297.81;;;0.00;nan
9091;BME280;4581;42.416;25.598;2023-05-11T02:13:57;67291.72;;;0.00;nan
9091;BME280;4581;42.416;25.598;2023-05-11T02:16:25;67300.88;;;0.00;nan
9091;BME280;4581;42.416;25.598;2023-05-11T02:18:54;67296.28;;;0.00;nan
9091;BME280;4581;42.416;25.598;2023-05-11T02:21:21;67300.88;;;0.00;nan
9091;BME280;4581;42.416;25.598;2023-05-11T02:23:48;67297.81;;;0.00;nan
9091;BME280;4581;42.416;25.598;2023-05-11T02:26:16;67293.25;;;0.00;nan
9091;BME280;4581;42.416;25.598;2023-05-11T02:28:43;67299.34;;;0.00;nan
9091;BME280;4581;42.416;25.598;2023-05-11T02:31:18;67300.88;;;0.00;nan
9091;BME280;4581;42.416;25.598;2023-05-11T02:33:48;67310.03;;;0.00;nan
9091;BME280;4581;42.416;25.598;2023-05-11T02:36:19;67302.41;;;0.00;nan
9091;BME280;4581;42.416;25.598;2023-05-11T02:38:49;67310.03;;;0.00;nan
9091;BME280;4581;42.416;25.598;2023-05-11T02:41:25;67316.13;;;0.00;nan
9091;BME280;4581;42.416;25.598;2023-05-11T02:43:55;67313.06;;;0.00;nan
9091;BME280;4581;42.416;25.598;2023-05-11T02:46:25;67310.03;;;0.00;nan
9091;BME280;4581;42.416;25.598;2023-05-11T02:48:55;67316.13;;;0.00;nan
9091;BME280;4581;42.416;25.598;2023-05-11T02:51:28;67319.19;;;0.00;nan
9091;BME280;4581;42.416;25.598;2023-05-11T02:53:57;67319.19;;;0.00;nan
9091;BME280;4581;42.416;25.598;2023-05-11T02:56:25;67314.59;;;0.00;nan
9091;BME280;4581;42.416;25.598;2023-05-11T02:58:52;67319.19;;;0.00;nan
9091;BME280;4581;42.416;25.598;2023-05-11T03:01:19;67311.56;;;0.00;nan
9091;BME280;4581;42.416;25.598;2023-05-11T03:03:46;67306.97;;;0.00;nan
9091;BME280;4581;42.416;25.598;2023-05-11T03:06:13;67303.91;;;0.00;nan
9091;BME280;4581;42.416;25.598;2023-05-11T03:08:40;67300.88;;;0.00;nan
9091;BME280;4581;42.416;25.598;2023-05-11T03:11:08;67300.88;;;0.00;nan
9091;BME280;4581;42.416;25.598;2023-05-11T03:13:36;67297.81;;;0.00;nan
9091;BME280;4581;42.416;25.598;2023-05-11T03:16:04;67300.88;;;0.00;nan
9091;BME280;4581;42.416;25.598;2023-05-11T03:18:32;67294.75;;;0.00;nan
9091;BME280;4581;42.416;25.598;2023-05-11T03:21:01;67296.28;;;0.00;nan
9091;BME280;4581;42.416;25.598;2023-05-11T03:23:29;67291.72;;;0.00;nan
9091;BME280;4581;42.416;25.598;2023-05-11T03:25:57;67285.59;;;0.00;nan
9091;BME280;4581;42.416;25.598;2023-05-11T03:28:24;67285.59;;;0.00;nan
9091;BME280;4581;42.416;25.598;2023-05-11T03:30:52;67288.66;;;0.00;nan
9091;BME280;4581;42.416;25.598;2023-05-11T03:33:19;67279.50;;;0.00;nan
9091;BME280;4581;42.416;25.598;2023-05-11T03:35:47;67285.59;;;0.00;nan
9091;BME280;4581;42.416;25.598;2023-05-11T03:38:15;67276.44;;;0.00;nan
9091;BME280;4581;42.416;25.598;2023-05-11T03:40:43;67270.34;;;0.00;nan
9091;BME280;4581;42.416;25.598;2023-05-11T03:43:11;67258.16;;;0.00;nan
9091;BME280;4581;42.416;25.598;2023-05-11T03:45:41;67255.09;;;0.00;nan
9091;BME280;4581;42.416;25.598;2023-05-11T03:48:09;67255.09;;;0.00;nan
9091;BME280;4581;42.416;25.598;2023-05-11T03:50:37;67253.56;;;0.00;nan
9091;BME280;4581;42.416;25.598;2023-05-11T03:53:05;67249.00;;;0.00;nan
9091;BME280;4581;42.416;25.598;2023-05-11T03:55:32;67245.94;;;0.00;nan
9091;BME280;4581;42.416;25.598;2023-05-11T03:57:59;67249.00;;;0.00;nan
9091;BME280;4581;42.416;25.598;2023-05-11T04:00:27;67247.47;;;0.00;nan
9091;BME280;4581;42.416;25.598;2023-05-11T04:02:56;67241.34;;;0.00;nan
9091;BME280;4581;42.416;25.598;2023-05-11T04:05:22;67232.19;;;0.00;nan
9091;BME280;4581;42.416;25.598;2023-05-11T04:07:49;67236.78;;;0.00;nan
9091;BME280;4581;42.416;25.598;2023-05-11T04:10:17;67244.41;;;0.00;nan
9091;BME280;4581;42.416;25.598;2023-05-11T04:12:44;67236.78;;;0.00;nan
9091;BME280;4581;42.416;25.598;2023-05-11T04:15:10;67232.19;;;0.00;nan
9091;BME280;4581;42.416;25.598;2023-05-11T04:17:37;67230.69;;;0.00;nan
9091;BME280;4581;42.416;25.598;2023-05-11T04:20:04;67224.56;;;0.00;nan
9091;BME280;4581;42.416;25.598;2023-05-11T04:22:31;67215.41;;;0.00;nan
9091;BME280;4581;42.416;25.598;2023-05-11T04:24:58;67223.03;;;0.00;nan
9091;BME280;4581;42.416;25.598;2023-05-11T04:27:25;67213.88;;;0.00;nan
9091;BME280;4581;42.416;25.598;2023-05-11T04:29:51;67209.31;;;0.00;nan
9091;BME280;4581;42.416;25.598;2023-05-11T04:32:18;67215.41;;;0.00;nan
9091;BME280;4581;42.416;25.598;2023-05-11T04:34:44;67210.84;;;0.00;nan
9091;BME280;4581;42.416;25.598;2023-05-11T04:37:11;67215.41;;;0.00;nan
9091;BME280;4581;42.416;25.598;2023-05-11T04:39:38;67204.75;;;0.00;nan
9091;BME280;4581;42.416;25.598;2023-05-11T04:42:05;67201.69;;;0.00;nan
9091;BME280;4581;42.416;25.598;2023-05-11T04:44:31;67195.59;;;0.00;nan
9091;BME280;4581;42.416;25.598;2023-05-11T04:46:58;67183.38;;;0.00;nan
9091;BME280;4581;42.416;25.598;2023-05-11T04:49:25;67169.63;;;0.00;nan
9091;BME280;4581;42.416;25.598;2023-05-11T04:51:51;67169.63;;;0.00;nan
9091;BME280;4581;42.416;25.598;2023-05-11T04:54:18;67157.44;;;0.00;nan
9091;BME280;4581;42.416;25.598;2023-05-11T04:56:45;67146.75;;;0.00;nan
9091;BME280;4581;42.416;25.598;2023-05-11T04:59:11;67137.59;;;0.00;nan
9091;BME280;4581;42.416;25.598;2023-05-11T05:01:38;67133.03;;;0.00;nan
9091;BME280;4581;42.416;25.598;2023-05-11T05:04:05;67123.88;;;0.00;nan
9091;BME280;4581;42.416;25.598;2023-05-11T05:06:32;67117.75;;;0.00;nan
9091;BME280;4581;42.416;25.598;2023-05-11T05:08:59;67111.66;;;0.00;nan
9091;BME280;4581;42.416;25.598;2023-05-11T05:11:26;67117.75;;;0.00;nan
9091;BME280;4581;42.416;25.598;2023-05-11T05:13:53;67131.50;;;0.00;nan
9091;BME280;4581;42.416;25.598;2023-05-11T05:16:20;67139.13;;;0.00;nan
9091;BME280;4581;42.416;25.598;2023-05-11T05:18:46;67143.69;;;0.00;nan
9091;BME280;4581;42.416;25.598;2023-05-11T05:21:13;67133.03;;;0.00;nan
9091;BME280;4581;42.416;25.598;2023-05-11T05:23:40;67126.91;;;0.00;nan
9091;BME280;4581;42.416;25.598;2023-05-11T05:26:06;67122.34;;;0.00;nan
9091;BME280;4581;42.416;25.598;2023-05-11T05:28:33;67099.44;;;0.00;nan
9091;BME280;4581;42.416;25.598;2023-05-11T05:31:01;67099.44;;;0.00;nan
9091;BME280;4581;42.416;25.598;2023-05-11T05:33:28;67090.28;;;0.00;nan
9091;BME280;4581;42.416;25.598;2023-05-11T05:35:54;67081.13;;;0.00;nan
9091;BME280;4581;42.416;25.598;2023-05-11T05:38:21;67061.31;;;0.00;nan
9091;BME280;4581;42.416;25.598;2023-05-11T05:40:48;67053.69;;;0.00;nan
9091;BME280;4581;42.416;25.598;2023-05-11T05:43:14;67021.63;;;0.00;nan
9091;BME280;4581;42.416;25.598;2023-05-11T05:45:41;66988.06;;;0.00;nan
9091;BME280;4581;42.416;25.598;2023-05-11T05:48:08;66971.28;;;0.00;nan
9091;BME280;4581;42.416;25.598;2023-05-11T05:50:36;66966.69;;;0.00;nan
9091;BME280;4581;42.416;25.598;2023-05-11T05:53:02;66980.44;;;0.00;nan
9091;BME280;4581;42.416;25.598;2023-05-11T05:55:29;66986.53;;;0.00;nan
9091;BME280;4581;42.416;25.598;2023-05-11T05:57:56;67015.53;;;0.00;nan
9091;BME280;4581;42.416;25.598;2023-05-11T06:00:22;67024.69;;;0.00;nan
9091;BME280;4581;42.416;25.598;2023-05-11T06:02:49;67000.28;;;0.00;nan
9091;BME280;4581;42.416;25.598;2023-05-11T06:05:16;66991.13;;;0.00;nan
9091;BME280;4581;42.416;25.598;2023-05-11T06:07:43;67007.91;;;0.00;nan
9091;BME280;4581;42.416;25.598;2023-05-11T06:10:17;67030.78;;;0.00;nan
9091;BME280;4581;42.416;25.598;2023-05-11T06:12:44;67041.47;;;0.00;nan
9091;BME280;4581;42.416;25.598;2023-05-11T06:15:11;67041.47;;;0.00;nan
9091;BME280;4581;42.416;25.598;2023-05-11T06:17:38;66975.84;;;0.00;nan
9091;BME280;4581;42.416;25.598;2023-05-11T06:20:05;66911.75;;;0.00;nan
9091;BME280;4581;42.416;25.598;2023-05-11T06:22:34;66884.31;;;0.00;nan
9091;BME280;4581;42.416;25.598;2023-05-11T06:25:00;66891.94;;;0.00;nan
9091;BME280;4581;42.416;25.598;2023-05-11T06:27:27;66907.19;;;0.00;nan
9091;BME280;4581;42.416;25.598;2023-05-11T06:29:54;66916.34;;;0.00;nan
9091;BME280;4581;42.416;25.598;2023-05-11T06:32:20;66899.56;;;0.00;nan
9091;BME280;4581;42.416;25.598;2023-05-11T06:34:47;66888.88;;;0.00;nan
9091;BME280;4581;42.416;25.598;2023-05-11T06:37:14;66919.41;;;0.00;nan
9091;BME280;4581;42.416;25.598;2023-05-11T06:39:46;66901.09;;;0.00;nan
9091;BME280;4581;42.416;25.598;2023-05-11T06:42:13;66872.09;;;0.00;nan
9091;BME280;4581;42.416;25.598;2023-05-11T06:44:40;66849.19;;;0.00;nan
9091;BME280;4581;42.416;25.598;2023-05-11T06:47:07;66846.16;;;0.00;nan
9091;BME280;4581;42.416;25.598;2023-05-11T06:49:34;66843.09;;;0.00;nan
9091;BME280;4581;42.416;25.598;2023-05-11T06:52:01;66850.72;;;0.00;nan
9091;BME280;4581;42.416;25.598;2023-05-11T06:54:27;66829.38;;;0.00;nan
9091;BME280;4581;42.416;25.598;2023-05-11T06:56:54;66843.09;;;0.00;nan
9091;BME280;4581;42.416;25.598;2023-05-11T06:59:21;66821.75;;;0.00;nan
9091;BME280;4581;42.416;25.598;2023-05-11T07:01:47;66815.63;;;0.00;nan
9091;BME280;4581;42.416;25.598;2023-05-11T07:04:14;66824.78;;;0.00;nan
9091;BME280;4581;42.416;25.598;2023-05-11T07:06:41;66815.63;;;0.00;nan
9091;BME280;4581;42.416;25.598;2023-05-11T07:09:07;66823.25;;;0.00;nan
9091;BME280;4581;42.416;25.598;2023-05-11T07:11:34;66791.22;;;0.00;nan
9091;BME280;4581;42.416;25.598;2023-05-11T07:14:01;66756.13;;;0.00;nan
9091;BME280;4581;42.416;25.598;2023-05-11T07:16:27;66737.81;;;0.00;nan
9091;BME280;4581;42.416;25.598;2023-05-11T07:18:54;66727.13;;;0.00;nan
9091;BME280;4581;42.416;25.598;2023-05-11T07:21:21;66673.72;;;0.00;nan
9091;BME280;4581;42.416;25.598;2023-05-11T07:23:48;66644.72;;;0.00;nan
9091;BME280;4581;42.416;25.598;2023-05-11T07:26:14;66618.78;;;0.00;nan
9091;BME280;4581;42.416;25.598;2023-05-11T07:28:41;66661.53;;;0.00;nan
9091;BME280;4581;42.416;25.598;2023-05-11T07:31:08;66644.72;;;0.00;nan
9091;BME280;4581;42.416;25.598;2023-05-11T07:33:38;66681.34;;;0.00;nan
9091;BME280;4581;42.416;25.598;2023-05-11T07:36:05;66690.50;;;0.00;nan
9091;BME280;4581;42.416;25.598;2023-05-11T07:38:32;66719.50;;;0.00;nan
9091;BME280;4581;42.416;25.598;2023-05-11T07:40:59;66754.59;;;0.00;nan
9091;BME280;4581;42.416;25.598;2023-05-11T07:43:26;66785.13;;;0.00;nan
9091;BME280;4581;42.416;25.598;2023-05-11T07:45:53;66772.91;;;0.00;nan
9091;BME280;4581;42.416;25.598;2023-05-11T07:48:19;66736.28;;;0.00;nan
9091;BME280;4581;42.416;25.598;2023-05-11T07:50:46;66757.66;;;0.00;nan
9091;BME280;4581;42.416;25.598;2023-05-11T07:53:15;66730.19;;;0.00;nan
9091;BME280;4581;42.416;25.598;2023-05-11T07:55:42;66673.72;;;0.00;nan
9091;BME280;4581;42.416;25.598;2023-05-11T07:58:08;66647.78;;;0.00;nan
9091;BME280;4581;42.416;25.598;2023-05-11T08:00:35;66666.09;;;0.00;nan
9091;BME280;4581;42.416;25.598;2023-05-11T08:03:02;66647.78;;;0.00;nan
9091;BME280;4581;42.416;25.598;2023-05-11T08:05:29;66666.09;;;0.00;nan
9091;BME280;4581;42.416;25.598;2023-05-11T08:07:58;66663.03;;;0.00;nan
9091;BME280;4581;42.416;25.598;2023-05-11T08:10:25;66684.41;;;0.00;nan
9091;BME280;4581;42.416;25.598;2023-05-11T08:12:51;66719.50;;;0.00;nan
9091;BME280;4581;42.416;25.598;2023-05-11T08:15:18;66731.72;;;0.00;nan
9091;BME280;4581;42.416;25.598;2023-05-11T08:17:45;66722.56;;;0.00;nan
9091;BME280;4581;42.416;25.598;2023-05-11T08:20:12;66679.84;;;0.00;nan
9091;BME280;4581;42.416;25.598;2023-05-11T08:22:39;66693.56;;;0.00;nan
9091;BME280;4581;42.416;25.598;2023-05-11T08:25:06;66739.34;;;0.00;nan
9091;BME280;4581;42.416;25.598;2023-05-11T08:27:33;66721.03;;;0.00;nan
9091;BME280;4581;42.416;25.598;2023-05-11T08:29:59;66672.19;;;0.00;nan
9091;BME280;4581;42.416;25.598;2023-05-11T08:32:29;66708.81;;;0.00;nan
9091;BME280;4581;42.416;25.598;2023-05-11T08:34:56;66624.91;;;0.00;nan
9091;BME280;4581;42.416;25.598;2023-05-11T08:37:23;66609.63;;;0.00;nan
9091;BME280;4581;42.416;25.598;2023-05-11T08:39:49;66623.38;;;0.00;nan
9091;BME280;4581;42.416;25.598;2023-05-11T08:42:17;66650.84;;;0.00;nan
9091;BME280;4581;42.416;25.598;2023-05-11T08:44:46;66650.84;;;0.00;nan
9091;BME280;4581;42.416;25.598;2023-05-11T08:47:14;66689.00;;;0.00;nan
9091;BME280;4581;42.416;25.598;2023-05-11T08:49:43;66626.44;;;0.00;nan
9091;BME280;4581;42.416;25.598;2023-05-11T08:52:11;66556.22;;;0.00;nan
9091;BME280;4581;42.416;25.598;2023-05-11T08:54:39;66568.44;;;0.00;nan
9091;BME280;4581;42.416;25.598;2023-05-11T08:57:06;66594.38;;;0.00;nan
9091;BME280;4581;42.416;25.598;2023-05-11T08:59:34;66644.72;;;0.00;nan
9091;BME280;4581;42.416;25.598;2023-05-11T09:02:03;66669.16;;;0.00;nan
9091;BME280;4581;42.416;25.598;2023-05-11T09:04:31;66647.78;;;0.00;nan
9091;BME280;4581;42.416;25.598;2023-05-11T09:06:58;66605.06;;;0.00;nan
9091;BME280;4581;42.416;25.598;2023-05-11T09:09:25;66588.28;;;0.00;nan
9091;BME280;4581;42.416;25.598;2023-05-11T09:11:52;66579.13;;;0.00;nan
9091;BME280;4581;42.416;25.598;2023-05-11T09:14:19;66562.34;;;0.00;nan
9091;BME280;4581;42.416;25.598;2023-05-11T09:16:52;66571.50;;;0.00;nan
9091;BME280;4581;42.416;25.598;2023-05-11T09:19:19;66588.28;;;0.00;nan
9091;BME280;4581;42.416;25.598;2023-05-11T09:21:46;66602.00;;;0.00;nan
9091;BME280;4581;42.416;25.598;2023-05-11T09:24:13;66609.63;;;0.00;nan
9091;BME280;4581;42.416;25.598;2023-05-11T09:26:40;66576.06;;;0.00;nan
9091;BME280;4581;42.416;25.598;2023-05-11T09:29:06;66577.59;;;0.00;nan
9091;BME280;4581;42.416;25.598;2023-05-11T09:34:16;66479.94;;;0.00;nan
9091;BME280;4581;42.416;25.598;2023-05-11T09:36:46;66464.69;;;0.00;nan
9091;BME280;4581;42.416;25.598;2023-05-11T09:39:14;66470.78;;;0.00;nan
9091;BME280;4581;42.416;25.598;2023-05-11T09:41:42;66483.00;;;0.00;nan
9091;BME280;4581;42.416;25.598;2023-05-11T09:44:09;66444.84;;;0.00;nan
9091;BME280;4581;42.416;25.598;2023-05-11T09:46:38;66428.06;;;0.00;nan
9091;BME280;4581;42.416;25.598;2023-05-11T09:49:06;66414.31;;;0.00;nan
9091;BME280;4581;42.416;25.598;2023-05-11T09:51:35;66400.59;;;0.00;nan
9091;BME280;4581;42.416;25.598;2023-05-11T09:54:19;66443.31;;;0.00;nan
9091;BME280;4581;42.416;25.598;2023-05-11T09:56:51;66483.00;;;0.00;nan
9091;BME280;4581;42.416;25.598;2023-05-11T09:59:39;66437.22;;;0.00;nan
9091;BME280;4581;42.416;25.598;2023-05-11T10:02:24;66397.53;;;0.00;nan
9091;BME280;4581;42.416;25.598;2023-05-11T10:04:54;66359.41;;;0.00;nan
9091;BME280;4581;42.416;25.598;2023-05-11T10:07:26;66342.59;;;0.00;nan
9091;BME280;4581;42.416;25.598;2023-05-11T10:10:04;66339.56;;;0.00;nan
9091;BME280;4581;42.416;25.598;2023-05-11T10:12:32;66313.63;;;0.00;nan
9091;BME280;4581;42.416;25.598;2023-05-11T10:15:07;66304.47;;;0.00;nan
9091;BME280;4581;42.416;25.598;2023-05-11T10:17:34;66275.47;;;0.00;nan
9091;BME280;4581;42.416;25.598;2023-05-11T10:20:03;66257.16;;;0.00;nan
9091;BME280;4581;42.416;25.598;2023-05-11T10:22:31;66284.63;;;0.00;nan
9091;BME280;4581;42.416;25.598;2023-05-11T10:24:59;66310.56;;;0.00;nan
9091;BME280;4581;42.416;25.598;2023-05-11T10:27:26;66299.88;;;0.00;nan
9091;BME280;4581;42.416;25.598;2023-05-11T10:29:53;66333.44;;;0.00;nan
9091;BME280;4581;42.416;25.598;2023-05-11T10:32:20;66322.78;;;0.00;nan
9091;BME280;4581;42.416;25.598;2023-05-11T10:34:47;66312.09;;;0.00;nan
9091;BME280;4581;42.416;25.598;2023-05-11T10:37:16;66344.13;;;0.00;nan
9091;BME280;4581;42.416;25.598;2023-05-11T10:39:44;66367.03;;;0.00;nan
9091;BME280;4581;42.416;25.598;2023-05-11T11:01:58;66252.59;;;0.00;nan
9091;BME280;4581;42.416;25.598;2023-05-11T11:04:45;66241.91;;;0.00;nan
9091;BME280;4581;42.416;25.598;2023-05-11T11:07:12;66225.13;;;0.00;nan
9091;BME280;4581;42.416;25.598;2023-05-11T11:10:03;66209.84;;;0.00;nan
9091;BME280;4581;42.416;25.598;2023-05-11T11:12:32;66194.59;;;0.00;nan
9091;BME280;4581;42.416;25.598;2023-05-11T11:15:05;66219.00;;;0.00;nan
9091;BME280;4581;42.416;25.598;2023-05-11T11:17:33;66243.44;;;0.00;nan
9091;BME280;4581;42.416;25.598;2023-05-11T11:20:05;66244.94;;;0.00;nan
9091;BME280;4581;42.416;25.598;2023-05-11T11:25:07;66246.47;;;0.00;nan
9091;BME280;4581;42.416;25.598;2023-05-11T11:30:20;66298.34;;;0.00;nan
9091;BME280;4581;42.416;25.598;2023-05-11T11:32:50;66295.31;;;0.00;nan
9091;BME280;4581;42.416;25.598;2023-05-11T11:38:13;66252.59;;;0.00;nan
9091;BME280;4581;42.416;25.598;2023-05-11T11:40:45;66191.53;;;0.00;nan
9091;BME280;4581;42.416;25.598;2023-05-11T11:43:17;66238.84;;;0.00;nan
9091;BME280;4581;42.416;25.598;2023-05-11T11:45:51;66333.44;;;0.00;nan
9091;BME280;4581;42.416;25.598;2023-05-11T11:51:08;66405.16;;;0.00;nan
9091;BME280;4581;42.416;25.598;2023-05-11T11:56:04;66371.59;;;0.00;nan
9091;BME280;4581;42.416;25.598;2023-05-11T12:03:44;66356.34;;;0.00;nan
9091;BME280;4581;42.416;25.598;2023-05-11T12:06:12;66325.81;;;0.00;nan
9091;BME280;4581;42.416;25.598;2023-05-11T12:08:40;66312.09;;;0.00;nan
9091;BME280;4581;42.416;25.598;2023-05-11T12:11:08;66284.63;;;0.00;nan
9091;BME280;4581;42.416;25.598;2023-05-11T12:13:35;66257.16;;;0.00;nan
9091;BME280;4581;42.416;25.598;2023-05-11T12:16:13;66211.38;;;0.00;nan
9091;BME280;4581;42.416;25.598;2023-05-11T12:18:43;66257.16;;;0.00;nan
9091;BME280;4581;42.416;25.598;2023-05-11T12:21:20;66362.44;;;0.00;nan
9091;BME280;4581;42.416;25.598;2023-05-11T12:23:52;66406.69;;;0.00;nan
9091;BME280;4581;42.416;25.598;2023-05-11T12:26:21;66354.81;;;0.00;nan
9091;BME280;4581;42.416;25.598;2023-05-11T12:28:48;66347.19;;;0.00;nan
9091;BME280;4581;42.416;25.598;2023-05-11T12:31:17;66339.56;;;0.00;nan
9091;BME280;4581;42.416;25.598;2023-05-11T12:33:48;66302.94;;;0.00;nan
9091;BME280;4581;42.416;25.598;2023-05-11T12:36:16;66280.03;;;0.00;nan
9091;BME280;4581;42.416;25.598;2023-05-11T12:38:47;66324.31;;;0.00;nan
9091;BME280;4581;42.416;25.598;2023-05-11T12:41:21;66321.25;;;0.00;nan
9091;BME280;4581;42.416;25.598;2023-05-11T12:43:49;66319.72;;;0.00;nan
9091;BME280;4581;42.416;25.598;2023-05-11T12:46:20;66344.13;;;0.00;nan
9091;BME280;4581;42.416;25.598;2023-05-11T12:48:48;66347.19;;;0.00;nan
9091;BME280;4581;42.416;25.598;2023-05-11T12:51:50;66342.59;;;0.00;nan
9091;BME280;4581;42.416;25.598;2023-05-11T12:54:31;66333.44;;;0.00;nan
9091;BME280;4581;42.416;25.598;2023-05-11T12:57:00;66327.34;;;0.00;nan
9091;BME280;4581;42.416;25.598;2023-05-11T12:59:40;66360.91;;;0.00;nan
9091;BME280;4581;42.416;25.598;2023-05-11T13:02:17;66377.72;;;0.00;nan
9091;BME280;4581;42.416;25.598;2023-05-11T13:04:46;66414.31;;;0.00;nan
9091;BME280;4581;42.416;25.598;2023-05-11T13:07:22;66405.16;;;0.00;nan
9091;BME280;4581;42.416;25.598;2023-05-11T13:09:59;66402.13;;;0.00;nan
9091;BME280;4581;42.416;25.598;2023-05-11T13:12:27;66391.44;;;0.00;nan
9091;BME280;4581;42.416;25.598;2023-05-11T13:15:08;66376.19;;;0.00;nan
9091;BME280;4581;42.416;25.598;2023-05-11T13:17:40;66362.44;;;0.00;nan
9091;BME280;4581;42.416;25.598;2023-05-11T13:20:17;66376.19;;;0.00;nan
9091;BME280;4581;42.416;25.598;2023-05-11T13:22:46;66388.38;;;0.00;nan
9091;BME280;4581;42.416;25.598;2023-05-11T13:25:22;66379.22;;;0.00;nan
9091;BME280;4581;42.416;25.598;2023-05-11T13:27:48;66380.75;;;0.00;nan
9091;BME280;4581;42.416;25.598;2023-05-11T13:30:15;66405.16;;;0.00;nan
9091;BME280;4581;42.416;25.598;2023-05-11T13:32:42;66405.16;;;0.00;nan
9091;BME280;4581;42.416;25.598;2023-05-11T13:35:09;66408.22;;;0.00;nan
9091;BME280;4581;42.416;25.598;2023-05-11T13:37:36;66396.00;;;0.00;nan
9091;BME280;4581;42.416;25.598;2023-05-11T13:40:04;66403.66;;;0.00;nan
9091;BME280;4581;42.416;25.598;2023-05-11T13:42:31;66420.44;;;0.00;nan
9091;BME280;4581;42.416;25.598;2023-05-11T13:44:58;66428.06;;;0.00;nan
9091;BME280;4581;42.416;25.598;2023-05-11T13:47:25;66458.56;;;0.00;nan
9091;BME280;4581;42.416;25.598;2023-05-11T13:49:52;66455.53;;;0.00;nan
9091;BME280;4581;42.416;25.598;2023-05-11T13:52:20;66460.09;;;0.00;nan
9091;BME280;4581;42.416;25.598;2023-05-11T13:54:50;66466.22;;;0.00;nan
9091;BME280;4581;42.416;25.598;2023-05-11T13:57:17;66454.00;;;0.00;nan
9091;BME280;4581;42.416;25.598;2023-05-11T13:59:44;66457.06;;;0.00;nan
9091;BME280;4581;42.416;25.598;2023-05-11T14:02:10;66464.69;;;0.00;nan
9091;BME280;4581;42.416;25.598;2023-05-11T14:04:37;66473.84;;;0.00;nan
9091;BME280;4581;42.416;25.598;2023-05-11T14:07:06;66489.09;;;0.00;nan
9091;BME280;4581;42.416;25.598;2023-05-11T14:09:32;66476.88;;;0.00;nan
9091;BME280;4581;42.416;25.598;2023-05-11T14:11:59;66466.22;;;0.00;nan
9091;BME280;4581;42.416;25.598;2023-05-11T14:14:26;66450.94;;;0.00;nan
9091;BME280;4581;42.416;25.598;2023-05-11T14:16:53;66420.44;;;0.00;nan
9091;BME280;4581;42.416;25.598;2023-05-11T14:19:19;66415.84;;;0.00;nan
9091;BME280;4581;42.416;25.598;2023-05-11T14:21:46;66435.69;;;0.00;nan
9091;BME280;4581;42.416;25.598;2023-05-11T14:24:14;66440.25;;;0.00;nan
9091;BME280;4581;42.416;25.598;2023-05-11T14:26:40;66452.47;;;0.00;nan
9091;BME280;4581;42.416;25.598;2023-05-11T14:29:07;66464.69;;;0.00;nan
9091;BME280;4581;42.416;25.598;2023-05-11T14:31:34;66469.25;;;0.00;nan
9091;BME280;4581;42.416;25.598;2023-05-11T14:34:02;66478.41;;;0.00;nan
9091;BME280;4581;42.416;25.598;2023-05-11T14:36:29;66492.16;;;0.00;nan
9091;BME280;4581;42.416;25.598;2023-05-11T14:38:57;66490.63;;;0.00;nan
9091;BME280;4581;42.416;25.598;2023-05-11T14:41:24;66489.09;;;0.00;nan
9091;BME280;4581;42.416;25.598;2023-05-11T14:43:51;66496.72;;;0.00;nan
9091;BME280;4581;42.416;25.598;2023-05-11T14:46:17;66504.34;;;0.00;nan